This is the latest recevied weather packets stored in our database for station/object LU8FJH-13. If no packets are shown the sender has not sent any weather packets the latest 1 day(s).
| Time | Temp. | Humidity | Pressure | Rain* | Wind** | Luminosity | Snow |
|---|---|---|---|---|---|---|---|
| 1778126463 | 21.67° C | 90% | 1000.1 hPa | 11.43 mm | - | - | - |
| 1778125923 | 22.78° C | 88% | 999.6 hPa | 4.32 mm | - | - | - |
| 1778125383 | 23.89° C | 83% | 999 hPa | 0.51 mm | - | - | - |
| 1778124843 | 24.44° C | 81% | 999.2 hPa | 0 mm | - | - | - |
| 1778124303 | 25° C | 78% | 999.1 hPa | 0 mm | - | - | - |
| 1778123763 | 25° C | 76% | 999.8 hPa | 0 mm | - | - | - |
| 1778122683 | 25° C | 75% | 999.9 hPa | 0 mm | - | - | - |
| 1778121603 | 25.56° C | 75% | 1000.2 hPa | 0 mm | - | - | - |
| 1778121063 | 25.56° C | 75% | 1000.9 hPa | 0 mm | - | - | - |
| 1778120523 | 25.56° C | 75% | 1000.8 hPa | 0 mm | - | - | - |
| 1778119982 | 25.56° C | 75% | 1001.1 hPa | 0 mm | - | - | - |
| 1778119443 | 25.56° C | 75% | 1001.1 hPa | 0 mm | - | - | - |
| 1778118903 | 25.56° C | 75% | 1001.5 hPa | 0 mm | - | - | - |
| 1778118363 | 25.56° C | 75% | 1001.6 hPa | 0 mm | - | - | - |
| 1778117823 | 25.56° C | 75% | 1001.7 hPa | 0 mm | - | - | - |
| 1778117283 | 25.56° C | 75% | 1001.2 hPa | 0 mm | - | - | - |
| 1778116203 | 26.11° C | 75% | 1001.4 hPa | 0 mm | - | - | - |
| 1778114583 | 26.11° C | 73% | 1002.8 hPa | 0 mm | - | - | - |
| 1778113503 | 26.67° C | 72% | 1002.4 hPa | 0 mm | - | - | - |
| 1778112963 | 26.67° C | 72% | 1002.2 hPa | 0 mm | - | - | - |
| 1778110803 | 26.67° C | 71% | 1001.4 hPa | 0 mm | - | - | - |
| 1778109723 | 26.67° C | 71% | 1001.6 hPa | 0 mm | - | - | - |
| 1778105943 | 27.22° C | 68% | 1001.2 hPa | 0 mm | - | - | - |
| 1778089742 | 32.22° C | 49% | 1002.7 hPa | 0 mm | - | - | - |
| 1778085422 | 32.22° C | 53% | 1004.3 hPa | 0 mm | - | - | - |
* Rain latest hour (hover to see other rain measurements)
** Current wind speed in m/s (hover to see current wind gust speed)